Time;durP1;ratioP1;P1;durP2;ratioP2;P2;SDS_P1;SDS_P2;PMS_P1;PMS_P2;Temp;Humidity;BMP_temperature;BMP_pressure;BME280_temperature;BME280_humidity;BME280_pressure;Samples;Min_cycle;Max_cycle;Signal;HPM_P1;HPM_P2
2021/07/29 00:00:17;;;;;;;16.70;6.57;;;;;;;;;;5091403;28;20027;-78
2021/07/29 00:02:42;;;;;;;30.15;7.35;;;;;;;;;;5091685;28;20033;-78
2021/07/29 00:05:08;;;;;;;25.77;7.72;;;;;;;;;;5091915;28;20020;-78
2021/07/29 00:07:33;;;;;;;26.02;8.07;;;;;;;;;;5091648;28;20016;-77
2021/07/29 00:09:58;;;;;;;23.90;6.90;;;;;;;;;;5091151;28;20063;-78
2021/07/29 00:12:24;;;;;;;28.60;7.18;;;;;;;;;;5091373;28;20027;-77
2021/07/29 00:14:51;;;;;;;23.00;6.85;;;;;;;;;;5091423;28;20098;-78
2021/07/29 00:20:18;;;;;;;23.27;7.38;;;;;;;;;;5047976;28;20063;-78
2021/07/29 00:22:44;;;;;;;24.60;7.50;;;;;;;;;;5066516;28;20123;-77
2021/07/29 00:25:12;;;;;;;32.28;8.30;;;;;;;;;;5071202;28;20049;-78
2021/07/29 00:27:38;;;;;;;29.38;7.82;;;;;;;;;;5071128;28;20024;-78
2021/07/29 00:30:04;;;;;;;18.85;6.22;;;;;;;;;;5086258;28;20091;-78
2021/07/29 00:32:30;;;;;;;21.23;7.10;;;;;;;;;;5070502;28;20100;-78
2021/07/29 00:34:55;;;;;;;26.23;7.00;;;;;;;;;;5072475;28;20207;-78
2021/07/29 00:37:20;;;;;;;26.90;6.93;;;;;;;;;;5090380;28;20058;-78
2021/07/29 00:39:45;;;;;;;25.27;7.38;;;;;;;;;;5090909;28;20040;-78
2021/07/29 00:42:11;;;;;;;21.98;6.80;;;;;;;;;;5089745;28;20020;-78
2021/07/29 00:44:37;;;;;;;26.50;7.00;;;;;;;;;;5090556;28;20472;-78
2021/07/29 00:47:03;;;;;;;18.45;5.57;;;;;;;;;;5090731;28;20019;-78
2021/07/29 00:49:28;;;;;;;27.25;6.82;;;;;;;;;;5091005;28;20357;-78
2021/07/29 00:51:53;;;;;;;29.00;6.50;;;;;;;;;;5091494;28;20063;-78
2021/07/29 00:54:19;;;;;;;23.08;5.95;;;;;;;;;;5090858;28;20371;-77
2021/07/29 00:56:44;;;;;;;34.42;7.35;;;;;;;;;;5091171;28;20133;-78
2021/07/29 00:59:10;;;;;;;36.40;7.75;;;;;;;;;;5090648;28;20039;-78
2021/07/29 01:01:35;;;;;;;19.55;6.85;;;;;;;;;;5090753;28;20024;-78
2021/07/29 01:04:00;;;;;;;26.75;6.95;;;;;;;;;;5091784;28;20448;-78
2021/07/29 01:06:26;;;;;;;29.42;7.13;;;;;;;;;;5090858;28;20040;-78
2021/07/29 01:08:58;;;;;;;27.80;7.25;;;;;;;;;;5090976;28;20077;-78
2021/07/29 01:11:23;;;;;;;18.83;6.18;;;;;;;;;;5090452;28;20441;-78
2021/07/29 01:13:48;;;;;;;26.88;7.88;;;;;;;;;;5090621;28;20039;-77
2021/07/29 01:16:13;;;;;;;24.13;7.30;;;;;;;;;;5090664;28;20107;-79
2021/07/29 01:18:39;;;;;;;22.67;7.05;;;;;;;;;;5089493;28;20063;-78
2021/07/29 01:21:04;;;;;;;19.40;6.90;;;;;;;;;;5090397;28;20082;-77
2021/07/29 01:23:29;;;;;;;34.28;8.80;;;;;;;;;;5090081;28;20024;-77
2021/07/29 01:25:54;;;;;;;23.80;7.22;;;;;;;;;;5090266;28;20027;-78
2021/07/29 01:28:20;;;;;;;19.92;6.60;;;;;;;;;;5089937;28;20097;-78
2021/07/29 01:30:45;;;;;;;20.13;6.88;;;;;;;;;;5090630;28;20031;-78
2021/07/29 01:33:10;;;;;;;21.73;7.43;;;;;;;;;;5090362;28;20084;-78
2021/07/29 01:35:36;;;;;;;31.33;8.00;;;;;;;;;;5089866;28;20403;-78
2021/07/29 01:38:01;;;;;;;32.55;6.75;;;;;;;;;;5090247;28;20034;-78
2021/07/29 01:40:26;;;;;;;22.15;6.65;;;;;;;;;;5089968;28;20047;-77
2021/07/29 01:42:51;;;;;;;21.23;6.95;;;;;;;;;;5089848;28;20035;-78
2021/07/29 01:45:17;;;;;;;30.67;8.45;;;;;;;;;;5090320;28;20083;-78
2021/07/29 01:47:42;;;;;;;20.58;6.25;;;;;;;;;;5090074;28;20036;-78
2021/07/29 01:50:07;;;;;;;26.58;7.25;;;;;;;;;;5088360;28;20032;-77
2021/07/29 01:52:36;;;;;;;26.70;6.85;;;;;;;;;;5089820;28;20020;-78
2021/07/29 01:55:01;;;;;;;30.90;6.93;;;;;;;;;;5088734;28;20115;-78
2021/07/29 01:57:26;;;;;;;24.70;6.95;;;;;;;;;;5090176;28;20065;-78
2021/07/29 01:59:52;;;;;;;23.27;7.30;;;;;;;;;;5089868;28;20100;-77
2021/07/29 02:02:18;;;;;;;18.50;6.10;;;;;;;;;;5089787;28;20069;-77
2021/07/29 02:04:43;;;;;;;30.45;7.88;;;;;;;;;;5090013;28;20067;-77
2021/07/29 02:07:08;;;;;;;23.98;7.65;;;;;;;;;;5089350;28;20024;-78
2021/07/29 02:09:34;;;;;;;25.83;7.10;;;;;;;;;;5089964;28;20020;-78
2021/07/29 02:11:59;;;;;;;27.35;7.05;;;;;;;;;;5090423;28;20032;-78
2021/07/29 02:14:25;;;;;;;22.35;6.25;;;;;;;;;;5089153;28;20471;-77
2021/07/29 02:16:50;;;;;;;20.83;7.18;;;;;;;;;;5089694;28;20027;-78
2021/07/29 02:19:16;;;;;;;20.45;7.07;;;;;;;;;;5091453;28;20047;-78
2021/07/29 02:21:42;;;;;;;15.90;6.28;;;;;;;;;;5093410;28;20090;-78
2021/07/29 02:24:07;;;;;;;19.20;6.63;;;;;;;;;;5094565;28;20478;-78
2021/07/29 02:26:33;;;;;;;29.85;7.65;;;;;;;;;;5094217;28;20044;-77
2021/07/29 02:28:58;;;;;;;25.70;6.72;;;;;;;;;;5093659;28;20016;-78
2021/07/29 02:31:23;;;;;;;21.48;6.47;;;;;;;;;;5093636;28;20020;-77
2021/07/29 02:33:48;;;;;;;26.58;7.40;;;;;;;;;;5093562;28;20078;-78
2021/07/29 02:36:15;;;;;;;40.53;9.07;;;;;;;;;;5093738;28;20091;-78
2021/07/29 02:38:40;;;;;;;27.90;7.85;;;;;;;;;;5093846;28;20044;-78
2021/07/29 02:41:05;;;;;;;25.38;7.45;;;;;;;;;;5093724;28;20032;-78
2021/07/29 02:43:31;;;;;;;30.30;8.27;;;;;;;;;;5093589;28;20085;-78
2021/07/29 02:45:56;;;;;;;27.50;7.30;;;;;;;;;;5093381;28;20016;-77
2021/07/29 02:48:21;;;;;;;34.33;7.78;;;;;;;;;;5093510;28;20020;-78
2021/07/29 02:50:50;;;;;;;42.15;8.52;;;;;;;;;;5093822;28;20406;-78
2021/07/29 02:53:15;;;;;;;28.15;7.70;;;;;;;;;;5093605;28;20034;-78
2021/07/29 02:55:41;;;;;;;23.67;8.07;;;;;;;;;;5093221;28;20127;-78
2021/07/29 02:58:06;;;;;;;32.83;7.53;;;;;;;;;;5093008;28;20365;-78
2021/07/29 03:00:31;;;;;;;18.42;6.90;;;;;;;;;;5093201;28;20060;-79
2021/07/29 03:02:56;;;;;;;28.70;9.82;;;;;;;;;;5092497;28;20085;-78
2021/07/29 03:05:22;;;;;;;25.65;8.43;;;;;;;;;;5093271;28;20027;-78
2021/07/29 03:07:47;;;;;;;31.98;8.13;;;;;;;;;;5093005;28;20016;-78
2021/07/29 03:10:13;;;;;;;30.58;8.25;;;;;;;;;;5092671;28;20388;-78
2021/07/29 03:12:38;;;;;;;25.73;7.10;;;;;;;;;;5092746;28;20015;-78
2021/07/29 03:15:04;;;;;;;26.33;8.68;;;;;;;;;;5092906;28;20016;-78
2021/07/29 03:17:29;;;;;;;20.63;7.88;;;;;;;;;;5091629;28;20036;-78
2021/07/29 03:19:54;;;;;;;31.60;7.53;;;;;;;;;;5092461;28;20052;-78
2021/07/29 03:22:19;;;;;;;25.25;6.65;;;;;;;;;;5092229;28;20084;-79
2021/07/29 03:24:45;;;;;;;22.83;6.95;;;;;;;;;;5092773;28;20036;-78
2021/07/29 03:27:10;;;;;;;20.50;7.07;;;;;;;;;;5091899;28;20020;-78
2021/07/29 03:29:35;;;;;;;22.23;6.45;;;;;;;;;;5092652;28;20088;-79
2021/07/29 03:32:01;;;;;;;19.90;6.60;;;;;;;;;;5091435;28;20446;-78
2021/07/29 03:34:26;;;;;;;21.30;7.40;;;;;;;;;;5092058;28;20028;-78
2021/07/29 03:36:51;;;;;;;19.95;6.53;;;;;;;;;;5092409;28;20026;-78
2021/07/29 03:39:16;;;;;;;23.55;7.35;;;;;;;;;;5092365;28;20040;-79
2021/07/29 03:41:42;;;;;;;29.80;7.30;;;;;;;;;;5092450;28;20087;-79
2021/07/29 03:44:07;;;;;;;23.20;7.00;;;;;;;;;;5092657;28;20448;-79
2021/07/29 03:46:32;;;;;;;23.55;6.88;;;;;;;;;;5092295;28;20032;-79
2021/07/29 03:48:58;;;;;;;24.30;6.95;;;;;;;;;;5092093;28;20069;-78
2021/07/29 03:51:24;;;;;;;25.90;7.30;;;;;;;;;;5091930;28;20399;-79
2021/07/29 03:53:50;;;;;;;21.38;7.00;;;;;;;;;;5091941;28;20107;-79
2021/07/29 03:56:15;;;;;;;21.60;6.72;;;;;;;;;;5092752;28;20166;-78
2021/07/29 03:58:40;;;;;;;26.50;7.38;;;;;;;;;;5091555;28;20403;-78
2021/07/29 04:01:09;;;;;;;28.33;7.38;;;;;;;;;;5091908;28;20047;-78
2021/07/29 04:03:34;;;;;;;22.50;7.15;;;;;;;;;;5091613;28;20050;-78
2021/07/29 04:05:59;;;;;;;22.23;6.35;;;;;;;;;;5092034;28;20372;-78
2021/07/29 04:08:25;;;;;;;22.58;6.47;;;;;;;;;;5091656;28;20082;-79
2021/07/29 04:10:50;;;;;;;17.05;6.55;;;;;;;;;;5092300;28;20063;-78
2021/07/29 04:13:15;;;;;;;24.05;7.75;;;;;;;;;;5091112;28;20081;-79
2021/07/29 04:15:40;;;;;;;26.65;6.68;;;;;;;;;;5091283;28;20042;-79
2021/07/29 04:18:06;;;;;;;21.58;6.50;;;;;;;;;;5091520;28;20115;-79
2021/07/29 04:20:31;;;;;;;31.98;8.23;;;;;;;;;;5090960;28;20468;-79
2021/07/29 04:22:56;;;;;;;31.67;8.10;;;;;;;;;;5091778;28;20476;-79
2021/07/29 04:25:21;;;;;;;30.48;7.25;;;;;;;;;;5091451;28;20027;-78
2021/07/29 04:27:47;;;;;;;29.25;7.65;;;;;;;;;;5091520;28;20027;-78
2021/07/29 04:30:12;;;;;;;26.30;7.28;;;;;;;;;;5091094;28;20036;-78
2021/07/29 04:32:38;;;;;;;23.17;6.55;;;;;;;;;;5090867;28;20031;-79
2021/07/29 04:35:03;;;;;;;20.40;6.93;;;;;;;;;;5091450;28;20024;-78
2021/07/29 04:37:29;;;;;;;27.17;8.23;;;;;;;;;;5091467;28;20036;-79
2021/07/29 04:39:54;;;;;;;20.55;5.70;;;;;;;;;;5091274;28;20035;-79
2021/07/29 04:42:19;;;;;;;16.92;5.82;;;;;;;;;;5090753;28;20020;-79
2021/07/29 04:44:45;;;;;;;15.88;5.88;;;;;;;;;;5090901;28;20032;-79
2021/07/29 04:47:14;;;;;;;18.58;6.00;;;;;;;;;;5090795;28;20020;-79
2021/07/29 04:49:40;;;;;;;20.17;5.78;;;;;;;;;;5090979;28;20016;-80
2021/07/29 04:52:05;;;;;;;17.13;5.47;;;;;;;;;;5091674;28;20101;-79
2021/07/29 04:54:30;;;;;;;26.70;7.30;;;;;;;;;;5090331;28;20039;-79
2021/07/29 04:56:56;;;;;;;20.95;6.50;;;;;;;;;;5090765;28;20101;-79
2021/07/29 04:59:21;;;;;;;22.02;6.68;;;;;;;;;;5090737;28;20545;-79
2021/07/29 05:01:47;;;;;;;22.05;6.00;;;;;;;;;;5090631;28;20067;-79
2021/07/29 05:04:12;;;;;;;43.03;8.60;;;;;;;;;;5091500;28;20050;-79
2021/07/29 05:06:37;;;;;;;16.40;5.70;;;;;;;;;;5090344;28;20116;-79
2021/07/29 05:09:03;;;;;;;27.63;6.63;;;;;;;;;;5090733;28;20031;-79
2021/07/29 05:11:29;;;;;;;23.40;5.90;;;;;;;;;;5090401;28;20016;-79
2021/07/29 05:13:54;;;;;;;13.45;5.43;;;;;;;;;;5090641;28;20387;-79
2021/07/29 05:16:19;;;;;;;21.83;5.93;;;;;;;;;;5090897;28;20098;-80
2021/07/29 05:18:45;;;;;;;20.30;5.28;;;;;;;;;;5090716;28;20376;-79
2021/07/29 05:21:10;;;;;;;14.65;4.85;;;;;;;;;;5090296;28;20079;-79
2021/07/29 05:23:35;;;;;;;12.63;4.10;;;;;;;;;;5090454;28;20081;-79
2021/07/29 05:26:01;;;;;;;22.67;5.47;;;;;;;;;;5090466;28;20357;-79
2021/07/29 05:28:26;;;;;;;10.48;3.22;;;;;;;;;;5090576;28;20028;-81
2021/07/29 05:30:52;;;;;;;80.88;8.20;;;;;;;;;;5090805;28;20022;-79
2021/07/29 05:33:17;;;;;;;9.80;3.45;;;;;;;;;;5090236;28;20019;-80
2021/07/29 05:35:43;;;;;;;9.48;3.45;;;;;;;;;;5090243;28;20038;-79
2021/07/29 05:38:08;;;;;;;182.85;10.70;;;;;;;;;;5090132;28;20047;-79
2021/07/29 05:40:34;;;;;;;21.38;3.97;;;;;;;;;;5090407;28;20026;-79
2021/07/29 05:43:00;;;;;;;209.80;12.15;;;;;;;;;;5090735;28;20105;-79
2021/07/29 05:45:27;;;;;;;8.93;3.20;;;;;;;;;;5090340;28;20388;-80
2021/07/29 05:47:53;;;;;;;11.57;2.55;;;;;;;;;;5090243;28;20218;-79
2021/07/29 05:50:18;;;;;;;91.03;6.78;;;;;;;;;;5090028;28;20555;-79
2021/07/29 05:52:43;;;;;;;25.67;3.28;;;;;;;;;;5090005;28;20020;-79
2021/07/29 05:55:09;;;;;;;135.35;7.63;;;;;;;;;;5089371;28;20457;-79
2021/07/29 05:57:34;;;;;;;52.88;5.75;;;;;;;;;;5090585;28;20078;-79
2021/07/29 06:00:00;;;;;;;8.13;2.40;;;;;;;;;;5090145;28;20475;-79
2021/07/29 06:02:25;;;;;;;7.00;2.05;;;;;;;;;;5090226;28;20021;-79
2021/07/29 06:04:50;;;;;;;7.50;2.00;;;;;;;;;;5089813;28;20755;-79
2021/07/29 06:07:15;;;;;;;5.93;2.22;;;;;;;;;;5089426;28;20027;-79
2021/07/29 06:09:41;;;;;;;16.08;2.25;;;;;;;;;;5090495;28;20022;-79
2021/07/29 06:12:06;;;;;;;5.50;1.80;;;;;;;;;;5090012;28;20111;-79
2021/07/29 06:14:31;;;;;;;3.22;1.50;;;;;;;;;;5089346;28;20024;-79
2021/07/29 06:16:57;;;;;;;3.53;1.70;;;;;;;;;;5089860;28;20113;-79
2021/07/29 06:19:31;;;;;;;4.15;1.98;;;;;;;;;;5089404;28;20071;-79
2021/07/29 06:21:57;;;;;;;6.95;2.72;;;;;;;;;;5089178;28;20123;-77
2021/07/29 06:24:23;;;;;;;4.45;1.52;;;;;;;;;;5089853;28;20124;-77
2021/07/29 06:26:49;;;;;;;7.68;2.25;;;;;;;;;;5088795;28;20135;-76
2021/07/29 06:29:14;;;;;;;5.00;1.67;;;;;;;;;;5089920;28;20501;-77
2021/07/29 06:31:40;;;;;;;7.82;2.55;;;;;;;;;;5089241;28;20028;-76
2021/07/29 06:34:05;;;;;;;3.95;1.40;;;;;;;;;;5089551;28;20024;-77
2021/07/29 06:36:30;;;;;;;5.47;1.55;;;;;;;;;;5089630;28;20357;-77
2021/07/29 06:38:57;;;;;;;5.30;1.67;;;;;;;;;;5088781;28;20403;-78
2021/07/29 06:41:23;;;;;;;4.65;1.52;;;;;;;;;;5090265;28;20078;-77
2021/07/29 06:43:48;;;;;;;5.50;1.65;;;;;;;;;;5089411;28;20475;-77
2021/07/29 06:46:13;;;;;;;4.40;1.38;;;;;;;;;;5088972;28;20069;-78
2021/07/29 06:48:39;;;;;;;4.80;1.40;;;;;;;;;;5089018;28;20020;-77
2021/07/29 06:51:07;;;;;;;6.88;1.60;;;;;;;;;;5089514;28;20104;-77
2021/07/29 06:53:35;;;;;;;2.53;1.38;;;;;;;;;;5089069;28;20056;-77
2021/07/29 06:56:00;;;;;;;4.05;1.42;;;;;;;;;;5089994;28;20063;-77
2021/07/29 06:58:26;;;;;;;4.30;1.65;;;;;;;;;;5089476;28;20072;-77
2021/07/29 07:00:51;;;;;;;3.38;1.52;;;;;;;;;;5089385;28;20085;-77
2021/07/29 07:03:17;;;;;;;9.00;1.80;;;;;;;;;;5089160;28;20053;-77
2021/07/29 07:05:45;;;;;;;2.60;1.30;;;;;;;;;;5091486;28;20012;-77
2021/07/29 07:08:11;;;;;;;6.00;2.20;;;;;;;;;;5092348;28;20520;-77
2021/07/29 07:10:36;;;;;;;2.67;1.30;;;;;;;;;;5093213;28;20016;-78
2021/07/29 07:13:01;;;;;;;4.00;1.77;;;;;;;;;;5093098;28;20138;-77
2021/07/29 07:15:26;;;;;;;6.38;1.70;;;;;;;;;;5092350;28;20396;-77
2021/07/29 07:17:53;;;;;;;7.17;1.60;;;;;;;;;;5092218;28;20024;-77
2021/07/29 07:20:18;;;;;;;4.38;1.38;;;;;;;;;;5095438;28;20295;-77
2021/07/29 07:22:44;;;;;;;3.83;1.50;;;;;;;;;;5095538;28;20068;-79
2021/07/29 07:25:09;;;;;;;6.37;1.43;;;;;;;;;;5093361;28;20030;-77
2021/07/29 07:27:34;;;;;;;3.27;1.40;;;;;;;;;;5092255;28;20228;-77
2021/07/29 07:29:59;;;;;;;7.00;1.48;;;;;;;;;;5091966;28;20764;-78
2021/07/29 07:32:25;;;;;;;3.15;1.60;;;;;;;;;;5092059;28;20099;-77
2021/07/29 07:34:50;;;;;;;5.03;1.33;;;;;;;;;;5092472;28;20020;-77
2021/07/29 07:37:18;;;;;;;5.70;1.30;;;;;;;;;;5092397;28;20397;-77
2021/07/29 07:39:43;;;;;;;2.88;1.40;;;;;;;;;;5092243;28;20470;-77
2021/07/29 07:42:09;;;;;;;3.80;1.30;;;;;;;;;;5092107;28;20020;-78
2021/07/29 07:44:34;;;;;;;2.92;1.27;;;;;;;;;;5090612;28;21189;-77
2021/07/29 07:46:59;;;;;;;4.03;1.60;;;;;;;;;;5091635;28;20449;-77
2021/07/29 07:49:24;;;;;;;2.93;1.60;;;;;;;;;;5091601;28;20251;-79
2021/07/29 07:51:50;;;;;;;4.80;1.48;;;;;;;;;;5091350;28;20261;-77
2021/07/29 07:54:15;;;;;;;4.22;1.38;;;;;;;;;;5089967;28;20031;-77
2021/07/29 07:56:42;;;;;;;3.47;1.30;;;;;;;;;;5089684;28;20100;-77
2021/07/29 07:59:08;;;;;;;6.15;1.70;;;;;;;;;;5090007;28;20097;-77
2021/07/29 08:01:33;;;;;;;2.88;1.23;;;;;;;;;;5090205;28;20028;-77
2021/07/29 08:03:59;;;;;;;2.90;1.40;;;;;;;;;;5090275;28;20024;-77
2021/07/29 08:06:24;;;;;;;3.83;1.30;;;;;;;;;;5090877;28;20816;-77
2021/07/29 08:08:49;;;;;;;6.18;1.92;;;;;;;;;;5091707;28;20016;-78
2021/07/29 08:11:15;;;;;;;5.28;1.48;;;;;;;;;;5091397;28;20020;-77
2021/07/29 08:13:40;;;;;;;3.70;1.58;;;;;;;;;;5090984;28;20055;-79
2021/07/29 08:16:06;;;;;;;4.57;1.50;;;;;;;;;;5090626;28;20054;-77
2021/07/29 08:18:31;;;;;;;3.63;1.10;;;;;;;;;;5091289;28;20112;-77
2021/07/29 08:20:57;;;;;;;2.58;1.02;;;;;;;;;;5091419;28;20105;-78
2021/07/29 08:23:22;;;;;;;4.93;1.50;;;;;;;;;;5091318;28;20152;-78
2021/07/29 08:25:47;;;;;;;2.67;1.20;;;;;;;;;;5091542;28;20030;-77
2021/07/29 08:28:13;;;;;;;1.85;1.10;;;;;;;;;;5091109;28;20368;-81
2021/07/29 08:30:38;;;;;;;2.30;1.30;;;;;;;;;;5088200;28;20016;-78
2021/07/29 08:33:08;;;;;;;3.25;1.50;;;;;;;;;;5090810;28;20051;-77
2021/07/29 08:35:35;;;;;;;4.05;1.30;;;;;;;;;;5091142;28;20039;-78
2021/07/29 08:38:00;;;;;;;2.63;1.27;;;;;;;;;;5090571;28;20020;-78
2021/07/29 08:40:25;;;;;;;3.15;1.17;;;;;;;;;;5091580;28;20024;-78
2021/07/29 08:42:50;;;;;;;6.13;1.92;;;;;;;;;;5091122;28;20036;-78
2021/07/29 08:45:16;;;;;;;2.63;1.23;;;;;;;;;;5091753;28;20031;-77
2021/07/29 08:47:44;;;;;;;4.73;1.20;;;;;;;;;;5090329;28;21293;-77
2021/07/29 08:50:10;;;;;;;6.65;1.40;;;;;;;;;;5090498;28;20613;-78
2021/07/29 08:52:35;;;;;;;3.08;1.05;;;;;;;;;;5091529;28;20023;-78
2021/07/29 08:55:01;;;;;;;5.80;1.30;;;;;;;;;;5091005;28;20099;-78
2021/07/29 08:57:28;;;;;;;2.40;1.48;;;;;;;;;;5092557;28;20084;-78
2021/07/29 08:59:53;;;;;;;3.95;1.70;;;;;;;;;;5107096;28;20691;-78
2021/07/29 09:02:22;;;;;;;6.07;1.50;;;;;;;;;;5080937;28;20008;-78
2021/07/29 09:05:06;;;;;;;5.20;1.52;;;;;;;;;;5088768;28;20081;-79
2021/07/29 09:07:33;;;;;;;3.78;1.15;;;;;;;;;;5089022;28;20504;-80
2021/07/29 09:09:58;;;;;;;2.15;1.10;;;;;;;;;;5089519;28;20099;-78
2021/07/29 09:12:24;;;;;;;2.88;1.23;;;;;;;;;;5089967;28;21008;-77
2021/07/29 09:14:50;;;;;;;3.85;1.27;;;;;;;;;;5089580;28;20405;-77
2021/07/29 09:17:16;;;;;;;5.47;1.23;;;;;;;;;;5088842;28;20429;-78
2021/07/29 09:19:46;;;;;;;1.60;1.00;;;;;;;;;;5089420;28;20031;-78
2021/07/29 09:22:18;;;;;;;2.75;1.10;;;;;;;;;;5089328;28;20126;-78
2021/07/29 09:25:02;;;;;;;2.30;1.10;;;;;;;;;;5088914;28;20063;-78
2021/07/29 09:27:39;;;;;;;2.55;1.10;;;;;;;;;;5088699;28;20038;-78
2021/07/29 09:30:12;;;;;;;4.32;1.38;;;;;;;;;;5089476;28;20039;-78
2021/07/29 09:32:53;;;;;;;4.63;1.20;;;;;;;;;;5091108;28;20028;-78
2021/07/29 09:35:38;;;;;;;3.63;1.10;;;;;;;;;;5089965;28;20028;-78
2021/07/29 09:38:04;;;;;;;2.80;1.02;;;;;;;;;;5089957;28;20052;-77
2021/07/29 09:40:43;;;;;;;2.80;1.27;;;;;;;;;;5090185;28;20039;-77
2021/07/29 09:43:11;;;;;;;3.40;1.17;;;;;;;;;;5089617;28;20531;-78
2021/07/29 09:45:36;;;;;;;2.55;0.80;;;;;;;;;;5090428;28;20028;-78
2021/07/29 09:48:04;;;;;;;5.57;1.00;;;;;;;;;;5089860;28;20069;-77
2021/07/29 09:50:30;;;;;;;2.47;0.95;;;;;;;;;;5090162;28;20117;-77
2021/07/29 09:52:55;;;;;;;2.55;1.05;;;;;;;;;;5090066;28;20032;-78
2021/07/29 09:55:21;;;;;;;4.72;1.40;;;;;;;;;;5090627;28;20017;-77
2021/07/29 09:57:46;;;;;;;4.43;1.13;;;;;;;;;;5089362;28;20024;-77
2021/07/29 10:00:12;;;;;;;2.50;0.68;;;;;;;;;;5089690;28;20032;-78
2021/07/29 10:02:38;;;;;;;3.85;0.90;;;;;;;;;;5089944;28;20476;-77
2021/07/29 10:05:04;;;;;;;2.75;0.80;;;;;;;;;;5090048;28;20073;-77
2021/07/29 10:07:32;;;;;;;4.45;1.08;;;;;;;;;;5089752;28;20039;-77
2021/07/29 10:09:58;;;;;;;3.58;0.77;;;;;;;;;;5090357;28;20395;-77
2021/07/29 10:12:25;;;;;;;4.43;1.58;;;;;;;;;;5090220;28;20020;-78
2021/07/29 10:14:51;;;;;;;2.97;1.10;;;;;;;;;;5089634;28;20135;-77
2021/07/29 10:17:17;;;;;;;3.17;1.20;;;;;;;;;;5090171;28;20016;-77
2021/07/29 10:20:01;;;;;;;2.65;1.00;;;;;;;;;;5089526;28;20122;-78
2021/07/29 10:22:26;;;;;;;2.00;1.05;;;;;;;;;;5089450;28;20036;-77
2021/07/29 10:24:52;;;;;;;3.70;1.73;;;;;;;;;;5089643;28;20045;-77
2021/07/29 10:27:17;;;;;;;3.45;1.10;;;;;;;;;;5089859;28;20354;-77
2021/07/29 10:29:43;;;;;;;4.03;1.02;;;;;;;;;;5089141;28;20163;-78
2021/07/29 10:32:12;;;;;;;4.35;1.15;;;;;;;;;;5089789;28;20016;-78
2021/07/29 10:34:38;;;;;;;2.92;1.02;;;;;;;;;;5089856;28;20480;-77
2021/07/29 10:37:07;;;;;;;1.13;0.70;;;;;;;;;;5089674;28;20044;-77
2021/07/29 10:39:51;;;;;;;3.97;1.25;;;;;;;;;;5089643;28;20491;-77
2021/07/29 10:42:24;;;;;;;1.80;0.90;;;;;;;;;;5093522;28;20024;-78
2021/07/29 10:44:49;;;;;;;2.33;0.80;;;;;;;;;;5093285;28;20020;-78
2021/07/29 10:47:33;;;;;;;7.85;1.38;;;;;;;;;;5092850;28;20035;-78
2021/07/29 10:49:58;;;;;;;2.72;0.90;;;;;;;;;;5093140;28;20123;-77
2021/07/29 10:52:23;;;;;;;2.50;0.80;;;;;;;;;;5093014;28;20118;-78
2021/07/29 10:54:51;;;;;;;6.70;0.77;;;;;;;;;;5093207;28;20241;-78
2021/07/29 10:57:17;;;;;;;3.22;1.10;;;;;;;;;;5093876;28;20085;-77
2021/07/29 10:59:43;;;;;;;1.33;0.70;;;;;;;;;;5093246;28;20060;-77
2021/07/29 11:02:22;;;;;;;4.13;1.10;;;;;;;;;;5092734;28;20074;-77
2021/07/29 11:04:51;;;;;;;2.50;0.88;;;;;;;;;;5093701;28;20063;-77
2021/07/29 11:07:18;;;;;;;2.90;0.80;;;;;;;;;;5093316;28;20119;-78
2021/07/29 11:09:43;;;;;;;5.40;0.95;;;;;;;;;;5092235;28;20945;-77
2021/07/29 11:12:12;;;;;;;4.22;0.88;;;;;;;;;;5093101;28;20043;-77
2021/07/29 11:14:39;;;;;;;4.68;0.85;;;;;;;;;;5093144;28;20040;-77
2021/07/29 11:17:04;;;;;;;1.95;0.68;;;;;;;;;;5092683;28;20560;-78
2021/07/29 11:19:32;;;;;;;3.47;1.05;;;;;;;;;;5092226;28;20012;-78
2021/07/29 11:22:03;;;;;;;3.78;1.10;;;;;;;;;;5093468;28;20064;-77
2021/07/29 11:24:29;;;;;;;4.60;1.23;;;;;;;;;;5089761;28;20024;-78
2021/07/29 11:26:54;;;;;;;5.47;1.40;;;;;;;;;;5091667;28;20062;-78
2021/07/29 11:29:19;;;;;;;6.35;1.10;;;;;;;;;;5091948;28;20377;-78
2021/07/29 11:31:45;;;;;;;2.20;1.02;;;;;;;;;;5091414;28;20059;-78
2021/07/29 11:34:11;;;;;;;5.13;0.90;;;;;;;;;;5091174;28;20107;-78
2021/07/29 11:36:36;;;;;;;1.48;0.73;;;;;;;;;;5092204;28;20078;-78
2021/07/29 11:39:02;;;;;;;3.35;1.15;;;;;;;;;;5091781;28;20402;-78
2021/07/29 11:41:27;;;;;;;5.47;1.20;;;;;;;;;;5092019;28;20016;-78
2021/07/29 11:43:54;;;;;;;3.45;0.95;;;;;;;;;;5091434;28;20057;-77
2021/07/29 11:46:19;;;;;;;3.92;1.60;;;;;;;;;;5090335;28;20046;-78
2021/07/29 11:48:45;;;;;;;5.40;1.02;;;;;;;;;;5091259;28;20531;-78
2021/07/29 11:51:13;;;;;;;3.92;1.23;;;;;;;;;;5090783;28;20119;-78
2021/07/29 11:53:39;;;;;;;1.33;0.88;;;;;;;;;;5091389;28;20020;-78
2021/07/29 11:56:05;;;;;;;3.08;1.00;;;;;;;;;;5092000;28;20097;-78
2021/07/29 11:58:31;;;;;;;3.58;1.17;;;;;;;;;;5091002;28;20082;-78
2021/07/29 12:00:56;;;;;;;5.32;1.75;;;;;;;;;;5091110;28;20068;-78
2021/07/29 12:03:24;;;;;;;2.65;1.02;;;;;;;;;;5090691;28;20058;-78
2021/07/29 12:05:50;;;;;;;7.15;0.95;;;;;;;;;;5091454;28;20059;-79
2021/07/29 12:08:16;;;;;;;5.07;1.15;;;;;;;;;;5091155;28;20078;-78
2021/07/29 12:10:42;;;;;;;8.85;1.30;;;;;;;;;;5091513;28;20074;-78
2021/07/29 12:13:10;;;;;;;5.00;0.90;;;;;;;;;;5091404;28;20114;-78
2021/07/29 12:15:36;;;;;;;4.43;1.40;;;;;;;;;;5088393;28;20039;-78
2021/07/29 12:18:15;;;;;;;3.00;1.40;;;;;;;;;;5090208;28;20024;-78
2021/07/29 12:20:41;;;;;;;3.78;1.80;;;;;;;;;;5090698;28;20093;-78
2021/07/29 12:23:13;;;;;;;6.25;1.42;;;;;;;;;;5090728;28;20058;-77
2021/07/29 12:25:39;;;;;;;3.80;1.20;;;;;;;;;;5091213;28;20078;-78
2021/07/29 12:28:04;;;;;;;5.72;1.45;;;;;;;;;;5090988;28;20024;-78
2021/07/29 12:30:38;;;;;;;4.35;1.20;;;;;;;;;;5091573;28;20104;-78
2021/07/29 12:33:13;;;;;;;7.47;1.65;;;;;;;;;;5091708;28;20024;-78
2021/07/29 12:36:02;;;;;;;6.53;1.20;;;;;;;;;;5091598;28;20032;-79
2021/07/29 12:38:34;;;;;;;3.08;0.80;;;;;;;;;;5080059;28;20047;-78
2021/07/29 12:41:00;;;;;;;4.32;1.20;;;;;;;;;;5091306;28;20035;-78
2021/07/29 12:43:29;;;;;;;5.05;1.20;;;;;;;;;;5090685;28;20084;-78
2021/07/29 12:45:55;;;;;;;3.15;1.00;;;;;;;;;;5089785;28;20024;-78
2021/07/29 12:48:23;;;;;;;3.38;1.00;;;;;;;;;;5089958;28;20038;-78
2021/07/29 12:50:49;;;;;;;3.33;1.05;;;;;;;;;;5090973;28;20059;-78
2021/07/29 12:53:15;;;;;;;3.72;0.95;;;;;;;;;;5091592;28;20070;-78
2021/07/29 12:55:41;;;;;;;2.80;0.95;;;;;;;;;;5090752;28;20024;-79
2021/07/29 12:58:09;;;;;;;9.57;2.63;;;;;;;;;;5087049;28;20068;-78
2021/07/29 13:00:38;;;;;;;3.17;1.08;;;;;;;;;;5090192;28;20455;-78
2021/07/29 13:03:14;;;;;;;7.32;1.25;;;;;;;;;;5089006;28;20032;-78
2021/07/29 13:05:40;;;;;;;2.17;1.00;;;;;;;;;;5090286;28;20032;-79
2021/07/29 13:08:05;;;;;;;5.85;1.27;;;;;;;;;;5081634;28;20024;-78
2021/07/29 13:10:31;;;;;;;4.22;1.20;;;;;;;;;;5087917;28;20484;-79
2021/07/29 13:12:58;;;;;;;4.10;1.00;;;;;;;;;;5088897;28;20028;-80
2021/07/29 13:15:23;;;;;;;4.15;1.27;;;;;;;;;;5088998;28;20055;-79
2021/07/29 13:17:48;;;;;;;1.70;0.80;;;;;;;;;;5088936;28;20958;-79
2021/07/29 13:20:14;;;;;;;1.50;0.93;;;;;;;;;;5088906;28;20055;-78
2021/07/29 13:22:39;;;;;;;3.85;0.98;;;;;;;;;;5088300;28;20103;-79
2021/07/29 13:25:05;;;;;;;4.80;1.02;;;;;;;;;;5088084;28;20124;-79
2021/07/29 13:27:30;;;;;;;4.97;1.00;;;;;;;;;;5089335;28;20404;-79
2021/07/29 13:29:55;;;;;;;3.08;1.00;;;;;;;;;;5088746;28;20043;-78
2021/07/29 13:32:21;;;;;;;2.30;1.02;;;;;;;;;;5088759;28;20107;-79
2021/07/29 13:34:46;;;;;;;2.80;0.90;;;;;;;;;;5086787;28;20468;-78
2021/07/29 13:37:11;;;;;;;5.57;1.45;;;;;;;;;;5088896;28;20032;-79
2021/07/29 13:39:38;;;;;;;3.97;0.90;;;;;;;;;;5089883;28;20459;-78
2021/07/29 13:42:03;;;;;;;4.25;1.08;;;;;;;;;;5087174;28;20446;-79
2021/07/29 13:44:29;;;;;;;3.22;1.00;;;;;;;;;;5089100;28;20060;-78
2021/07/29 13:46:54;;;;;;;2.63;1.00;;;;;;;;;;5089504;28;20422;-78
2021/07/29 13:49:20;;;;;;;4.30;0.98;;;;;;;;;;5088928;28;20399;-79
2021/07/29 13:51:47;;;;;;;5.32;1.00;;;;;;;;;;5089789;28;20024;-79
2021/07/29 13:54:12;;;;;;;2.90;0.90;;;;;;;;;;5089720;28;20027;-78
2021/07/29 13:56:37;;;;;;;2.80;0.93;;;;;;;;;;5089250;28;20177;-79
2021/07/29 13:59:02;;;;;;;3.47;0.88;;;;;;;;;;5089724;28;20066;-78
2021/07/29 14:01:28;;;;;;;2.10;0.82;;;;;;;;;;5089657;28;20036;-79
2021/07/29 14:03:53;;;;;;;2.55;1.00;;;;;;;;;;5089846;28;20016;-78
2021/07/29 14:06:19;;;;;;;2.50;1.00;;;;;;;;;;5090356;28;20035;-79
2021/07/29 14:08:45;;;;;;;2.10;1.10;;;;;;;;;;5083484;28;20066;-79
2021/07/29 14:11:11;;;;;;;2.97;0.80;;;;;;;;;;5088803;28;20024;-79
2021/07/29 14:13:36;;;;;;;5.38;1.15;;;;;;;;;;5087408;28;20063;-79
2021/07/29 14:16:01;;;;;;;2.53;1.17;;;;;;;;;;5091597;28;20032;-78
2021/07/29 14:18:27;;;;;;;1.92;0.80;;;;;;;;;;5094070;28;20103;-79
2021/07/29 14:23:24;;;;;;;2.85;1.20;;;;;;;;;;5092078;28;20032;-79
2021/07/29 14:25:49;;;;;;;3.85;1.25;;;;;;;;;;5093586;28;20133;-79
2021/07/29 14:28:14;;;;;;;2.47;0.95;;;;;;;;;;5093242;28;20039;-78
2021/07/29 14:30:40;;;;;;;2.25;0.90;;;;;;;;;;5093868;28;20468;-78
2021/07/29 14:33:06;;;;;;;8.20;1.20;;;;;;;;;;5093917;28;20034;-78
2021/07/29 14:35:33;;;;;;;6.00;1.58;;;;;;;;;;5094627;28;20376;-78
2021/07/29 14:37:58;;;;;;;4.30;1.00;;;;;;;;;;5093558;28;20101;-78